Terminal Aerodrome Forecast
Issued by NWS Sioux Falls, SD

Home | Current Version | Previous Version | Text Only | Print | Product List | Glossary On
Versions: 1 2 3 4 5 6 7 8 9 10 11 12 13 14 15 16 17 18
000
FTUS43 KFSD 271612 AAB
TAFSUX
TAF AMD
KSUX 271612Z 2716/2812 13005KT P6SM BKN020
     FM271900 13005KT P6SM BKN035
     FM280300 10004KT P6SM SHRA VCTS OVC060CB
     FM280800 07004KT 5SM SHRA VCTS OVC040CB
     FM281100 01004KT 3SM SHRA VCTS OVC035CB=

USA.gov is the U.S. government's official web portal to all federal, state and local government web resources and services.